EJU89UC LFRS-LPFR
Flight info
| Callsign | EJU89UC |
|---|---|
| Flight time | 1h 56m |
| Altitude | 37000 |
| Route | ERIGA UZ218 FUJTI DCT BAKUP DCT BATAX DCT TOFEF DCT ALAGU |
| Aircraft | A320/M-SDE2E3FGHIJ1RWXYZ/LB1 |
Departure
| Time | 2026-04-29 13:18 |
|---|---|
| Airport | Nantes Atlantique Airport (LFRS) |
Arrival
| Time | 2026-04-29 15:15 |
|---|---|
| Airport | Faro - Gago Coutinho International Airport (LPFR) |
| Time | Latitude | Longitude | Altitude | Speed | Heading |
|---|---|---|---|---|---|
| 2026-04-29 12:45 | 47.15673 | -1.60226 | 91 ft | 0 kts | 35° |
| 2026-04-29 13:06 | 47.15666 | -1.60234 | 91 ft | 4 kts | 35° |
| 2026-04-29 13:06 | 47.15643 | -1.60257 | 90 ft | 4 kts | 35° |
| 2026-04-29 13:06 | 47.15627 | -1.60274 | 90 ft | 4 kts | 10° |
| 2026-04-29 13:06 | 47.15609 | -1.60264 | 90 ft | 4 kts | 300° |
| 2026-04-29 13:07 | 47.15596 | -1.60231 | 90 ft | 4 kts | 297° |
| 2026-04-29 13:07 | 47.15584 | -1.60196 | 91 ft | 4 kts | 297° |
| 2026-04-29 13:07 | 47.15580 | -1.60186 | 91 ft | 0 kts | 297° |
| 2026-04-29 13:10 | 47.15580 | -1.60187 | 91 ft | 1 kts | 297° |
| 2026-04-29 13:11 | 47.15586 | -1.60214 | 90 ft | 6 kts | 281° |
| 2026-04-29 13:11 | 47.15573 | -1.60266 | 90 ft | 5 kts | 230° |
| 2026-04-29 13:11 | 47.15531 | -1.60318 | 90 ft | 9 kts | 233° |
| 2026-04-29 13:11 | 47.15524 | -1.60405 | 92 ft | 11 kts | 288° |
| 2026-04-29 13:12 | 47.15568 | -1.60505 | 92 ft | 12 kts | 304° |
| 2026-04-29 13:12 | 47.15570 | -1.60607 | 90 ft | 10 kts | 224° |
| 2026-04-29 13:12 | 47.15510 | -1.60658 | 92 ft | 11 kts | 207° |
| 2026-04-29 13:12 | 47.15422 | -1.60725 | 91 ft | 14 kts | 207° |
| 2026-04-29 13:13 | 47.15344 | -1.60785 | 92 ft | 11 kts | 207° |
| 2026-04-29 13:13 | 47.15274 | -1.60839 | 91 ft | 12 kts | 207° |
| 2026-04-29 13:13 | 47.15200 | -1.60894 | 91 ft | 12 kts | 207° |
| 2026-04-29 13:13 | 47.15135 | -1.60944 | 91 ft | 10 kts | 207° |
| 2026-04-29 13:14 | 47.15071 | -1.60993 | 89 ft | 13 kts | 207° |
| 2026-04-29 13:14 | 47.14983 | -1.61059 | 89 ft | 14 kts | 207° |
| 2026-04-29 13:14 | 47.14907 | -1.61117 | 89 ft | 11 kts | 207° |
| 2026-04-29 13:14 | 47.14846 | -1.61163 | 91 ft | 9 kts | 207° |
| 2026-04-29 13:15 | 47.14776 | -1.61217 | 90 ft | 12 kts | 207° |
| 2026-04-29 13:15 | 47.14709 | -1.61268 | 90 ft | 10 kts | 207° |
| 2026-04-29 13:15 | 47.14656 | -1.61309 | 91 ft | 9 kts | 207° |
| 2026-04-29 13:15 | 47.14578 | -1.61368 | 88 ft | 15 kts | 207° |
| 2026-04-29 13:16 | 47.14490 | -1.61435 | 91 ft | 13 kts | 207° |
| 2026-04-29 13:16 | 47.14405 | -1.61499 | 87 ft | 17 kts | 207° |
| 2026-04-29 13:16 | 47.14292 | -1.61586 | 86 ft | 17 kts | 208° |
| 2026-04-29 13:16 | 47.14196 | -1.61659 | 86 ft | 14 kts | 210° |
| 2026-04-29 13:17 | 47.14150 | -1.61777 | 85 ft | 13 kts | 250° |
| 2026-04-29 13:17 | 47.14150 | -1.61888 | 88 ft | 10 kts | 292° |
| 2026-04-29 13:17 | 47.14195 | -1.61926 | 85 ft | 8 kts | 16° |
| 2026-04-29 13:17 | 47.14239 | -1.61895 | 85 ft | 11 kts | 27° |
| 2026-04-29 13:18 | 47.14482 | -1.61708 | 90 ft | 74 kts | 27° |
| 2026-04-29 13:18 | 47.15127 | -1.61219 | 88 ft | 133 kts | 27° |
| 2026-04-29 13:18 | 47.16038 | -1.60508 | 426 ft | 152 kts | 31° |
| 2026-04-29 13:18 | 47.17034 | -1.59990 | 1200 ft | 157 kts | 0° |
| 2026-04-29 13:19 | 47.18058 | -1.60652 | 1929 ft | 172 kts | 315° |
| 2026-04-29 13:19 | 47.18656 | -1.62198 | 2636 ft | 177 kts | 295° |
| 2026-04-29 13:19 | 47.19170 | -1.63854 | 3330 ft | 179 kts | 295° |
| 2026-04-29 13:19 | 47.19709 | -1.65578 | 3840 ft | 195 kts | 294° |
| 2026-04-29 13:20 | 47.20307 | -1.67490 | 4165 ft | 216 kts | 294° |
| 2026-04-29 13:20 | 47.20968 | -1.69596 | 4472 ft | 238 kts | 294° |
| 2026-04-29 13:20 | 47.21692 | -1.71901 | 4818 ft | 260 kts | 294° |
| 2026-04-29 13:20 | 47.22323 | -1.74509 | 5247 ft | 281 kts | 272° |
| 2026-04-29 13:21 | 47.22046 | -1.77357 | 5910 ft | 284 kts | 242° |
| 2026-04-29 13:21 | 47.21056 | -1.79850 | 6738 ft | 284 kts | 233° |
| 2026-04-29 13:21 | 47.20097 | -1.82400 | 7667 ft | 286 kts | 237° |
| 2026-04-29 13:21 | 47.19219 | -1.84997 | 8567 ft | 288 kts | 238° |
| 2026-04-29 13:22 | 47.18348 | -1.87664 | 9504 ft | 291 kts | 238° |
| 2026-04-29 13:22 | 47.17462 | -1.90357 | 10252 ft | 298 kts | 238° |
| 2026-04-29 13:22 | 47.16504 | -1.93191 | 10540 ft | 321 kts | 237° |
| 2026-04-29 13:22 | 47.15480 | -1.96169 | 11144 ft | 330 kts | 237° |
| 2026-04-29 13:23 | 47.14295 | -1.99049 | 11876 ft | 328 kts | 224° |
| 2026-04-29 13:23 | 47.12754 | -2.01524 | 12686 ft | 330 kts | 224° |
| 2026-04-29 13:23 | 47.11209 | -2.04033 | 13519 ft | 333 kts | 223° |
| 2026-04-29 13:23 | 47.09630 | -2.06539 | 14289 ft | 336 kts | 223° |
| 2026-04-29 13:24 | 47.08032 | -2.09077 | 14959 ft | 340 kts | 223° |
| 2026-04-29 13:24 | 47.06432 | -2.11649 | 15623 ft | 343 kts | 224° |
| 2026-04-29 13:24 | 47.04828 | -2.14260 | 16291 ft | 346 kts | 224° |
| 2026-04-29 13:24 | 47.03218 | -2.16898 | 16959 ft | 349 kts | 224° |
| 2026-04-29 13:25 | 47.01594 | -2.19563 | 17620 ft | 352 kts | 224° |
| 2026-04-29 13:25 | 46.98306 | -2.24946 | 18834 ft | 357 kts | 224° |
| 2026-04-29 13:25 | 46.96589 | -2.27581 | 19406 ft | 358 kts | 218° |
| 2026-04-29 13:26 | 46.94592 | -2.29726 | 19998 ft | 356 kts | 207° |
| 2026-04-29 13:26 | 46.92400 | -2.31423 | 20637 ft | 357 kts | 205° |
| 2026-04-29 13:26 | 46.90183 | -2.33101 | 21277 ft | 360 kts | 205° |
| 2026-04-29 13:26 | 46.87952 | -2.34795 | 21869 ft | 363 kts | 205° |
| 2026-04-29 13:27 | 46.85708 | -2.36510 | 22422 ft | 365 kts | 206° |
| 2026-04-29 13:27 | 46.83483 | -2.38332 | 22949 ft | 368 kts | 208° |
| 2026-04-29 13:27 | 46.81306 | -2.40237 | 23459 ft | 371 kts | 209° |
| 2026-04-29 13:27 | 46.79103 | -2.42227 | 23889 ft | 374 kts | 210° |
| 2026-04-29 13:28 | 46.76893 | -2.44234 | 24355 ft | 375 kts | 210° |
| 2026-04-29 13:28 | 46.74662 | -2.46241 | 24768 ft | 378 kts | 209° |
| 2026-04-29 13:28 | 46.72412 | -2.48237 | 25189 ft | 379 kts | 209° |
| 2026-04-29 13:28 | 46.70146 | -2.50226 | 25615 ft | 381 kts | 209° |
| 2026-04-29 13:29 | 46.67869 | -2.52210 | 26041 ft | 383 kts | 208° |
| 2026-04-29 13:29 | 46.65577 | -2.54200 | 26479 ft | 384 kts | 208° |
| 2026-04-29 13:29 | 46.63276 | -2.56195 | 26912 ft | 386 kts | 209° |
| 2026-04-29 13:29 | 46.60966 | -2.58201 | 27315 ft | 387 kts | 209° |
| 2026-04-29 13:30 | 46.58649 | -2.60215 | 27723 ft | 389 kts | 209° |
| 2026-04-29 13:30 | 46.56322 | -2.62238 | 28119 ft | 391 kts | 209° |
| 2026-04-29 13:30 | 46.53985 | -2.64271 | 28510 ft | 392 kts | 209° |
| 2026-04-29 13:30 | 46.51642 | -2.66306 | 28893 ft | 394 kts | 209° |
| 2026-04-29 13:31 | 46.49286 | -2.68346 | 29284 ft | 395 kts | 209° |
| 2026-04-29 13:31 | 46.46917 | -2.70391 | 29670 ft | 397 kts | 209° |
| 2026-04-29 13:31 | 46.44536 | -2.72440 | 30029 ft | 398 kts | 209° |
| 2026-04-29 13:31 | 46.42149 | -2.74496 | 30329 ft | 400 kts | 209° |
| 2026-04-29 13:32 | 46.39753 | -2.76561 | 30628 ft | 402 kts | 209° |
| 2026-04-29 13:32 | 46.37344 | -2.78638 | 30906 ft | 403 kts | 209° |
| 2026-04-29 13:32 | 46.34928 | -2.80719 | 31219 ft | 405 kts | 209° |
| 2026-04-29 13:32 | 46.32505 | -2.82807 | 31552 ft | 405 kts | 209° |
| 2026-04-29 13:33 | 46.30092 | -2.84888 | 31978 ft | 403 kts | 209° |
| 2026-04-29 13:33 | 46.27689 | -2.86959 | 32371 ft | 402 kts | 209° |
| 2026-04-29 13:33 | 46.25291 | -2.89024 | 32758 ft | 401 kts | 210° |
| 2026-04-29 13:33 | 46.22908 | -2.91094 | 33142 ft | 400 kts | 210° |
| 2026-04-29 13:34 | 46.20531 | -2.93168 | 33535 ft | 399 kts | 210° |
| 2026-04-29 13:34 | 46.18160 | -2.95235 | 33907 ft | 397 kts | 210° |
| 2026-04-29 13:34 | 46.15797 | -2.97293 | 34227 ft | 397 kts | 210° |
| 2026-04-29 13:34 | 46.13431 | -2.99353 | 34506 ft | 397 kts | 210° |
| 2026-04-29 13:35 | 46.11066 | -3.01408 | 34765 ft | 397 kts | 210° |
| 2026-04-29 13:35 | 46.08701 | -3.03459 | 35033 ft | 397 kts | 210° |
| 2026-04-29 13:35 | 46.06334 | -3.05506 | 35291 ft | 397 kts | 210° |
| 2026-04-29 13:35 | 46.03965 | -3.07555 | 35527 ft | 397 kts | 210° |
| 2026-04-29 13:36 | 46.01596 | -3.09605 | 35757 ft | 398 kts | 210° |
| 2026-04-29 13:36 | 45.99222 | -3.11660 | 35988 ft | 398 kts | 210° |
| 2026-04-29 13:36 | 45.96847 | -3.13712 | 36210 ft | 399 kts | 210° |
| 2026-04-29 13:36 | 45.94470 | -3.15760 | 36436 ft | 399 kts | 210° |
| 2026-04-29 13:37 | 45.92085 | -3.17816 | 36647 ft | 400 kts | 210° |
| 2026-04-29 13:37 | 45.89692 | -3.19875 | 36839 ft | 402 kts | 210° |
| 2026-04-29 13:37 | 45.84911 | -3.23973 | 36896 ft | 399 kts | 210° |
| 2026-04-29 13:38 | 45.80178 | -3.28020 | 36894 ft | 398 kts | 210° |
| 2026-04-29 13:38 | 45.75422 | -3.32084 | 36888 ft | 398 kts | 210° |
| 2026-04-29 13:39 | 45.70664 | -3.36154 | 36887 ft | 398 kts | 210° |
| 2026-04-29 13:39 | 45.65918 | -3.40200 | 36889 ft | 397 kts | 210° |
| 2026-04-29 13:40 | 45.61176 | -3.44232 | 36879 ft | 396 kts | 210° |
| 2026-04-29 13:40 | 45.56429 | -3.48250 | 36877 ft | 396 kts | 210° |
| 2026-04-29 13:41 | 45.51691 | -3.52270 | 36888 ft | 397 kts | 210° |
| 2026-04-29 13:41 | 45.46944 | -3.56288 | 36877 ft | 397 kts | 210° |
| 2026-04-29 13:42 | 45.42175 | -3.60311 | 36881 ft | 399 kts | 210° |
| 2026-04-29 13:42 | 45.37401 | -3.64332 | 36860 ft | 398 kts | 210° |
| 2026-04-29 13:43 | 45.32639 | -3.68330 | 36857 ft | 398 kts | 210° |
| 2026-04-29 13:43 | 45.27873 | -3.72324 | 36864 ft | 398 kts | 210° |
| 2026-04-29 13:44 | 45.23102 | -3.76305 | 36861 ft | 398 kts | 210° |
| 2026-04-29 13:44 | 45.18373 | -3.80267 | 36867 ft | 398 kts | 210° |
| 2026-04-29 13:45 | 45.13603 | -3.84233 | 36873 ft | 397 kts | 209° |
| 2026-04-29 13:45 | 45.08838 | -3.88197 | 36870 ft | 397 kts | 209° |
| 2026-04-29 13:46 | 45.04065 | -3.92151 | 36865 ft | 397 kts | 209° |
| 2026-04-29 13:46 | 44.99293 | -3.96098 | 36863 ft | 397 kts | 209° |
| 2026-04-29 13:47 | 44.94523 | -4.00052 | 36863 ft | 397 kts | 209° |
| 2026-04-29 13:47 | 44.89754 | -4.03999 | 36856 ft | 397 kts | 209° |
| 2026-04-29 13:48 | 44.84984 | -4.07939 | 36855 ft | 397 kts | 209° |
| 2026-04-29 13:48 | 44.80212 | -4.11863 | 36853 ft | 397 kts | 209° |
| 2026-04-29 13:49 | 44.75442 | -4.15784 | 36850 ft | 397 kts | 209° |
| 2026-04-29 13:49 | 44.70674 | -4.19685 | 36847 ft | 397 kts | 209° |
| 2026-04-29 13:50 | 44.65899 | -4.23577 | 36847 ft | 397 kts | 209° |
| 2026-04-29 13:50 | 44.61162 | -4.27442 | 36846 ft | 396 kts | 209° |
| 2026-04-29 13:51 | 44.56395 | -4.31326 | 36841 ft | 396 kts | 209° |
| 2026-04-29 13:51 | 44.51623 | -4.35203 | 36833 ft | 396 kts | 209° |
| 2026-04-29 13:52 | 44.46849 | -4.39076 | 36831 ft | 397 kts | 209° |
| 2026-04-29 13:52 | 44.42065 | -4.42947 | 36834 ft | 397 kts | 209° |
| 2026-04-29 13:53 | 44.37302 | -4.46878 | 36838 ft | 398 kts | 210° |
| 2026-04-29 13:53 | 44.32580 | -4.50917 | 36836 ft | 398 kts | 210° |
| 2026-04-29 13:54 | 44.27860 | -4.54951 | 36837 ft | 398 kts | 210° |
| 2026-04-29 13:54 | 44.23128 | -4.58962 | 36853 ft | 398 kts | 210° |
| 2026-04-29 13:55 | 44.18382 | -4.62957 | 36842 ft | 399 kts | 210° |
| 2026-04-29 13:55 | 44.13631 | -4.66949 | 36840 ft | 399 kts | 210° |
| 2026-04-29 13:56 | 44.09675 | -4.70270 | 36837 ft | 400 kts | 210° |
| 2026-04-29 13:56 | 44.04911 | -4.74257 | 36842 ft | 400 kts | 210° |
| 2026-04-29 13:57 | 44.00145 | -4.78242 | 36846 ft | 399 kts | 210° |
| 2026-04-29 13:57 | 43.95385 | -4.82218 | 36844 ft | 399 kts | 210° |
| 2026-04-29 13:58 | 43.90621 | -4.86181 | 36840 ft | 399 kts | 210° |
| 2026-04-29 13:58 | 43.85857 | -4.90136 | 36838 ft | 399 kts | 210° |
| 2026-04-29 13:59 | 43.81086 | -4.94095 | 36839 ft | 400 kts | 210° |
| 2026-04-29 13:59 | 43.76314 | -4.98048 | 36849 ft | 400 kts | 210° |
| 2026-04-29 14:00 | 43.71535 | -5.01996 | 36833 ft | 400 kts | 210° |
| 2026-04-29 14:00 | 43.66748 | -5.05950 | 36829 ft | 401 kts | 210° |
| 2026-04-29 14:01 | 43.61949 | -5.09906 | 36831 ft | 402 kts | 210° |
| 2026-04-29 14:01 | 43.57138 | -5.13858 | 36833 ft | 403 kts | 210° |
| 2026-04-29 14:02 | 43.52326 | -5.17809 | 36835 ft | 403 kts | 210° |
| 2026-04-29 14:02 | 43.47509 | -5.21760 | 36828 ft | 403 kts | 210° |
| 2026-04-29 14:03 | 43.42688 | -5.25706 | 36827 ft | 403 kts | 210° |
| 2026-04-29 14:03 | 43.37854 | -5.29647 | 36833 ft | 404 kts | 210° |
| 2026-04-29 14:04 | 43.33019 | -5.33584 | 36843 ft | 404 kts | 210° |
| 2026-04-29 14:04 | 43.28214 | -5.37491 | 36832 ft | 404 kts | 210° |
| 2026-04-29 14:05 | 43.23382 | -5.41424 | 36825 ft | 404 kts | 210° |
| 2026-04-29 14:05 | 43.18545 | -5.45338 | 36822 ft | 404 kts | 210° |
| 2026-04-29 14:06 | 43.13701 | -5.49243 | 36820 ft | 404 kts | 210° |
| 2026-04-29 14:06 | 43.08857 | -5.53150 | 36819 ft | 404 kts | 210° |
| 2026-04-29 14:07 | 43.04014 | -5.57058 | 36815 ft | 404 kts | 210° |
| 2026-04-29 14:07 | 42.99165 | -5.60963 | 36817 ft | 405 kts | 210° |
| 2026-04-29 14:08 | 42.94312 | -5.64857 | 36814 ft | 405 kts | 209° |
| 2026-04-29 14:08 | 42.89453 | -5.68744 | 36818 ft | 405 kts | 209° |
| 2026-04-29 14:09 | 42.84591 | -5.72632 | 36822 ft | 405 kts | 210° |
| 2026-04-29 14:09 | 42.79713 | -5.76520 | 36819 ft | 407 kts | 210° |
| 2026-04-29 14:10 | 42.74829 | -5.80419 | 36816 ft | 407 kts | 210° |
| 2026-04-29 14:10 | 42.69943 | -5.84308 | 36818 ft | 407 kts | 210° |
| 2026-04-29 14:11 | 42.65046 | -5.88191 | 36821 ft | 407 kts | 209° |
| 2026-04-29 14:11 | 42.60149 | -5.92072 | 36823 ft | 408 kts | 210° |
| 2026-04-29 14:12 | 42.55248 | -5.95946 | 36814 ft | 408 kts | 209° |
| 2026-04-29 14:12 | 42.50347 | -5.99814 | 36813 ft | 408 kts | 209° |
| 2026-04-29 14:13 | 42.45477 | -6.03653 | 36807 ft | 408 kts | 209° |
| 2026-04-29 14:13 | 42.40570 | -6.07510 | 36804 ft | 408 kts | 209° |
| 2026-04-29 14:14 | 42.35660 | -6.11360 | 36812 ft | 408 kts | 209° |
| 2026-04-29 14:14 | 42.30741 | -6.15213 | 36811 ft | 409 kts | 209° |
| 2026-04-29 14:15 | 42.25814 | -6.19059 | 36815 ft | 409 kts | 209° |
| 2026-04-29 14:15 | 42.20886 | -6.22909 | 36807 ft | 409 kts | 210° |
| 2026-04-29 14:16 | 42.15952 | -6.26759 | 36802 ft | 410 kts | 209° |
| 2026-04-29 14:16 | 42.11009 | -6.30606 | 36804 ft | 410 kts | 209° |
| 2026-04-29 14:17 | 42.06052 | -6.34453 | 36812 ft | 411 kts | 209° |
| 2026-04-29 14:17 | 42.01102 | -6.38290 | 36812 ft | 410 kts | 210° |
| 2026-04-29 14:18 | 41.96153 | -6.42117 | 36805 ft | 410 kts | 210° |
| 2026-04-29 14:18 | 41.91199 | -6.45940 | 36811 ft | 411 kts | 209° |
| 2026-04-29 14:19 | 41.85913 | -6.48717 | 36818 ft | 411 kts | 194° |
| 2026-04-29 14:19 | 41.80379 | -6.50480 | 36812 ft | 412 kts | 194° |
| 2026-04-29 14:20 | 41.74794 | -6.52232 | 36797 ft | 412 kts | 194° |
| 2026-04-29 14:20 | 41.69206 | -6.53993 | 36799 ft | 413 kts | 194° |
| 2026-04-29 14:21 | 41.63606 | -6.55750 | 36800 ft | 413 kts | 194° |
| 2026-04-29 14:21 | 41.58006 | -6.57515 | 36804 ft | 414 kts | 194° |
| 2026-04-29 14:22 | 41.52401 | -6.59277 | 36805 ft | 414 kts | 194° |
| 2026-04-29 14:22 | 41.46791 | -6.61024 | 36809 ft | 414 kts | 194° |
| 2026-04-29 14:23 | 41.41179 | -6.62773 | 36821 ft | 414 kts | 194° |
| 2026-04-29 14:23 | 41.35567 | -6.64529 | 36811 ft | 414 kts | 194° |
| 2026-04-29 14:24 | 41.29957 | -6.66281 | 36823 ft | 414 kts | 194° |
| 2026-04-29 14:24 | 41.24349 | -6.68020 | 36824 ft | 414 kts | 194° |
| 2026-04-29 14:25 | 41.18738 | -6.69757 | 36827 ft | 414 kts | 194° |
| 2026-04-29 14:25 | 41.13132 | -6.71494 | 36821 ft | 414 kts | 194° |
| 2026-04-29 14:26 | 41.07524 | -6.73226 | 36829 ft | 414 kts | 195° |
| 2026-04-29 14:26 | 41.01954 | -6.74955 | 36838 ft | 414 kts | 194° |
| 2026-04-29 14:27 | 40.96345 | -6.76681 | 36841 ft | 414 kts | 194° |
| 2026-04-29 14:28 | 40.87927 | -6.79254 | 36834 ft | 414 kts | 195° |
| 2026-04-29 14:28 | 40.82325 | -6.80983 | 36843 ft | 413 kts | 195° |
| 2026-04-29 14:29 | 40.76719 | -6.82707 | 36847 ft | 413 kts | 195° |
| 2026-04-29 14:29 | 40.71116 | -6.84421 | 36862 ft | 413 kts | 195° |
| 2026-04-29 14:30 | 40.65507 | -6.86129 | 36829 ft | 414 kts | 195° |
| 2026-04-29 14:30 | 40.59887 | -6.87834 | 36841 ft | 415 kts | 195° |
| 2026-04-29 14:31 | 40.54264 | -6.89543 | 36842 ft | 415 kts | 195° |
| 2026-04-29 14:31 | 40.48637 | -6.91256 | 36856 ft | 415 kts | 195° |
| 2026-04-29 14:32 | 40.43005 | -6.92968 | 36853 ft | 415 kts | 195° |
| 2026-04-29 14:32 | 40.37370 | -6.94666 | 36861 ft | 415 kts | 195° |
| 2026-04-29 14:33 | 40.31736 | -6.96358 | 36866 ft | 416 kts | 195° |
| 2026-04-29 14:33 | 40.26100 | -6.98049 | 36856 ft | 415 kts | 195° |
| 2026-04-29 14:34 | 40.20507 | -6.99734 | 36860 ft | 415 kts | 195° |
| 2026-04-29 14:34 | 40.14877 | -7.01423 | 36866 ft | 415 kts | 195° |
| 2026-04-29 14:35 | 40.09250 | -7.03111 | 36865 ft | 415 kts | 195° |
| 2026-04-29 14:35 | 40.03633 | -7.04801 | 36864 ft | 414 kts | 195° |
| 2026-04-29 14:36 | 39.98016 | -7.06487 | 36868 ft | 414 kts | 196° |
| 2026-04-29 14:36 | 39.92401 | -7.08171 | 36870 ft | 414 kts | 196° |
| 2026-04-29 14:37 | 39.86785 | -7.09848 | 36870 ft | 414 kts | 195° |
| 2026-04-29 14:37 | 39.81168 | -7.11513 | 36854 ft | 414 kts | 196° |
| 2026-04-29 14:38 | 39.75598 | -7.13182 | 36852 ft | 414 kts | 197° |
| 2026-04-29 14:38 | 39.69988 | -7.14899 | 36846 ft | 415 kts | 197° |
| 2026-04-29 14:39 | 39.64329 | -7.16602 | 36861 ft | 414 kts | 196° |
| 2026-04-29 14:39 | 39.58745 | -7.18234 | 36871 ft | 414 kts | 196° |
| 2026-04-29 14:40 | 39.53096 | -7.19882 | 36869 ft | 413 kts | 197° |
| 2026-04-29 14:40 | 39.47539 | -7.21518 | 36873 ft | 412 kts | 197° |
| 2026-04-29 14:41 | 39.41950 | -7.23164 | 36873 ft | 412 kts | 197° |
| 2026-04-29 14:41 | 39.36358 | -7.24801 | 36865 ft | 412 kts | 197° |
| 2026-04-29 14:42 | 39.30767 | -7.26430 | 36848 ft | 411 kts | 197° |
| 2026-04-29 14:42 | 39.25187 | -7.28061 | 36857 ft | 411 kts | 197° |
| 2026-04-29 14:43 | 39.19611 | -7.29690 | 36859 ft | 411 kts | 197° |
| 2026-04-29 14:43 | 39.14036 | -7.31310 | 36859 ft | 410 kts | 197° |
| 2026-04-29 14:44 | 39.08469 | -7.32927 | 36847 ft | 410 kts | 198° |
| 2026-04-29 14:44 | 39.02911 | -7.34537 | 36858 ft | 409 kts | 198° |
| 2026-04-29 14:45 | 38.97359 | -7.36148 | 36862 ft | 409 kts | 198° |
| 2026-04-29 14:45 | 38.91804 | -7.37760 | 36703 ft | 410 kts | 198° |
| 2026-04-29 14:45 | 38.89930 | -7.38301 | 36533 ft | 409 kts | 198° |
| 2026-04-29 14:46 | 38.87158 | -7.39101 | 36236 ft | 407 kts | 199° |
| 2026-04-29 14:46 | 38.84397 | -7.39897 | 35984 ft | 406 kts | 199° |
| 2026-04-29 14:46 | 38.81648 | -7.40689 | 35735 ft | 404 kts | 199° |
| 2026-04-29 14:46 | 38.78912 | -7.41478 | 35491 ft | 402 kts | 199° |
| 2026-04-29 14:47 | 38.76191 | -7.42263 | 35236 ft | 399 kts | 199° |
| 2026-04-29 14:47 | 38.73492 | -7.43039 | 34997 ft | 396 kts | 199° |
| 2026-04-29 14:47 | 38.70807 | -7.43808 | 34769 ft | 394 kts | 200° |
| 2026-04-29 14:47 | 38.68144 | -7.44569 | 34526 ft | 391 kts | 200° |
| 2026-04-29 14:48 | 38.65502 | -7.45323 | 34290 ft | 388 kts | 200° |
| 2026-04-29 14:48 | 38.62912 | -7.46063 | 34039 ft | 385 kts | 200° |
| 2026-04-29 14:48 | 38.60303 | -7.46813 | 33799 ft | 382 kts | 200° |
| 2026-04-29 14:48 | 38.57730 | -7.47550 | 33370 ft | 376 kts | 201° |
| 2026-04-29 14:49 | 38.55190 | -7.48275 | 32912 ft | 372 kts | 201° |
| 2026-04-29 14:49 | 38.52677 | -7.48991 | 32468 ft | 368 kts | 201° |
| 2026-04-29 14:49 | 38.50198 | -7.49699 | 32029 ft | 363 kts | 201° |
| 2026-04-29 14:49 | 38.47744 | -7.50398 | 31600 ft | 359 kts | 201° |
| 2026-04-29 14:50 | 38.45316 | -7.51091 | 31172 ft | 355 kts | 201° |
| 2026-04-29 14:50 | 38.42916 | -7.51773 | 30756 ft | 351 kts | 201° |
| 2026-04-29 14:50 | 38.40545 | -7.52445 | 30307 ft | 347 kts | 201° |
| 2026-04-29 14:50 | 38.38207 | -7.53106 | 29940 ft | 342 kts | 201° |
| 2026-04-29 14:51 | 38.35899 | -7.53760 | 29528 ft | 337 kts | 201° |
| 2026-04-29 14:51 | 38.33625 | -7.54404 | 29150 ft | 332 kts | 202° |
| 2026-04-29 14:51 | 38.31388 | -7.55039 | 28778 ft | 327 kts | 202° |
| 2026-04-29 14:51 | 38.29186 | -7.55666 | 28427 ft | 322 kts | 202° |
| 2026-04-29 14:52 | 38.27017 | -7.56286 | 28075 ft | 317 kts | 202° |
| 2026-04-29 14:52 | 38.24880 | -7.56898 | 27722 ft | 313 kts | 202° |
| 2026-04-29 14:52 | 38.22760 | -7.57504 | 27378 ft | 311 kts | 202° |
| 2026-04-29 14:52 | 38.20653 | -7.58106 | 27024 ft | 309 kts | 202° |
| 2026-04-29 14:53 | 38.18558 | -7.58703 | 26655 ft | 307 kts | 202° |
| 2026-04-29 14:53 | 38.16478 | -7.59294 | 26306 ft | 305 kts | 202° |
| 2026-04-29 14:53 | 38.14411 | -7.59881 | 25949 ft | 304 kts | 202° |
| 2026-04-29 14:53 | 38.12354 | -7.60462 | 25586 ft | 302 kts | 202° |
| 2026-04-29 14:54 | 38.10304 | -7.61035 | 25212 ft | 301 kts | 202° |
| 2026-04-29 14:54 | 38.08243 | -7.61428 | 24803 ft | 308 kts | 194° |
| 2026-04-29 14:54 | 38.06081 | -7.61462 | 24377 ft | 311 kts | 191° |
| 2026-04-29 14:54 | 38.03914 | -7.61461 | 23949 ft | 311 kts | 191° |
| 2026-04-29 14:55 | 38.01749 | -7.61456 | 23516 ft | 311 kts | 191° |
| 2026-04-29 14:55 | 37.99582 | -7.61452 | 23034 ft | 311 kts | 191° |
| 2026-04-29 14:55 | 37.97429 | -7.61450 | 22595 ft | 309 kts | 191° |
| 2026-04-29 14:55 | 37.95287 | -7.61449 | 22180 ft | 307 kts | 191° |
| 2026-04-29 14:56 | 37.93160 | -7.61451 | 21745 ft | 305 kts | 190° |
| 2026-04-29 14:56 | 37.91048 | -7.61453 | 21363 ft | 303 kts | 190° |
| 2026-04-29 14:56 | 37.88941 | -7.61456 | 20962 ft | 302 kts | 190° |
| 2026-04-29 14:56 | 37.86842 | -7.61458 | 20574 ft | 301 kts | 189° |
| 2026-04-29 14:57 | 37.84749 | -7.61460 | 20168 ft | 301 kts | 189° |
| 2026-04-29 14:57 | 37.82653 | -7.61460 | 19766 ft | 301 kts | 189° |
| 2026-04-29 14:57 | 37.80554 | -7.61460 | 19365 ft | 301 kts | 189° |
| 2026-04-29 14:57 | 37.78456 | -7.61461 | 18969 ft | 302 kts | 189° |
| 2026-04-29 14:58 | 37.76358 | -7.61463 | 18572 ft | 302 kts | 188° |
| 2026-04-29 14:58 | 37.74255 | -7.61463 | 18175 ft | 302 kts | 188° |
| 2026-04-29 14:58 | 37.72150 | -7.61466 | 17741 ft | 302 kts | 188° |
| 2026-04-29 14:58 | 37.70053 | -7.61468 | 17328 ft | 301 kts | 188° |
| 2026-04-29 14:59 | 37.67966 | -7.61466 | 16949 ft | 299 kts | 188° |
| 2026-04-29 14:59 | 37.65892 | -7.61463 | 16575 ft | 298 kts | 188° |
| 2026-04-29 14:59 | 37.63825 | -7.61463 | 16198 ft | 297 kts | 187° |
| 2026-04-29 14:59 | 37.61761 | -7.61466 | 15826 ft | 296 kts | 187° |
| 2026-04-29 15:00 | 37.59699 | -7.61467 | 15450 ft | 296 kts | 187° |
| 2026-04-29 15:00 | 37.57665 | -7.61468 | 15084 ft | 296 kts | 187° |
| 2026-04-29 15:00 | 37.55577 | -7.61468 | 14715 ft | 296 kts | 187° |
| 2026-04-29 15:00 | 37.53514 | -7.61469 | 14342 ft | 296 kts | 187° |
| 2026-04-29 15:01 | 37.51455 | -7.61472 | 13968 ft | 296 kts | 186° |
| 2026-04-29 15:01 | 37.49420 | -7.61475 | 13586 ft | 297 kts | 186° |
| 2026-04-29 15:01 | 37.47355 | -7.61475 | 13181 ft | 297 kts | 186° |
| 2026-04-29 15:01 | 37.45297 | -7.61473 | 12792 ft | 295 kts | 186° |
| 2026-04-29 15:02 | 37.43253 | -7.61469 | 12420 ft | 293 kts | 186° |
| 2026-04-29 15:02 | 37.41220 | -7.61468 | 12039 ft | 292 kts | 186° |
| 2026-04-29 15:02 | 37.39197 | -7.61469 | 11658 ft | 290 kts | 186° |
| 2026-04-29 15:02 | 37.37182 | -7.61473 | 11288 ft | 289 kts | 185° |
| 2026-04-29 15:03 | 37.35172 | -7.61472 | 10898 ft | 289 kts | 185° |
| 2026-04-29 15:03 | 37.33167 | -7.61469 | 10510 ft | 288 kts | 185° |
| 2026-04-29 15:03 | 37.31166 | -7.61472 | 10122 ft | 287 kts | 185° |
| 2026-04-29 15:03 | 37.29168 | -7.61476 | 9772 ft | 286 kts | 185° |
| 2026-04-29 15:04 | 37.27210 | -7.61476 | 9520 ft | 277 kts | 185° |
| 2026-04-29 15:04 | 37.25288 | -7.61474 | 8928 ft | 274 kts | 184° |
| 2026-04-29 15:04 | 37.23415 | -7.61468 | 8504 ft | 264 kts | 184° |
| 2026-04-29 15:04 | 37.21615 | -7.61462 | 8120 ft | 254 kts | 185° |
| 2026-04-29 15:05 | 37.19866 | -7.61462 | 7740 ft | 249 kts | 185° |
| 2026-04-29 15:05 | 37.18146 | -7.61464 | 7395 ft | 247 kts | 185° |
| 2026-04-29 15:05 | 37.16421 | -7.61471 | 7053 ft | 247 kts | 185° |
| 2026-04-29 15:05 | 37.14712 | -7.61475 | 6677 ft | 245 kts | 185° |
| 2026-04-29 15:06 | 37.13008 | -7.61478 | 6289 ft | 244 kts | 184° |
| 2026-04-29 15:06 | 37.11308 | -7.61482 | 5874 ft | 244 kts | 184° |
| 2026-04-29 15:06 | 37.09621 | -7.61487 | 5597 ft | 237 kts | 185° |
| 2026-04-29 15:06 | 37.08053 | -7.61721 | 5395 ft | 219 kts | 199° |
| 2026-04-29 15:07 | 37.06666 | -7.62365 | 5245 ft | 211 kts | 208° |
| 2026-04-29 15:07 | 37.05323 | -7.63114 | 5134 ft | 211 kts | 207° |
| 2026-04-29 15:07 | 37.03988 | -7.63844 | 5033 ft | 206 kts | 208° |
| 2026-04-29 15:07 | 37.02731 | -7.64528 | 4928 ft | 195 kts | 207° |
| 2026-04-29 15:08 | 37.01504 | -7.65199 | 4880 ft | 191 kts | 209° |
| 2026-04-29 15:08 | 37.00293 | -7.65866 | 4771 ft | 190 kts | 208° |
| 2026-04-29 15:08 | 36.99132 | -7.66634 | 4550 ft | 186 kts | 222° |
| 2026-04-29 15:08 | 36.98269 | -7.67806 | 4362 ft | 182 kts | 241° |
| 2026-04-29 15:09 | 36.97792 | -7.69255 | 4190 ft | 180 kts | 259° |
| 2026-04-29 15:09 | 36.97747 | -7.70816 | 3981 ft | 181 kts | 278° |
| 2026-04-29 15:09 | 36.97968 | -7.72359 | 3750 ft | 180 kts | 279° |
| 2026-04-29 15:09 | 36.98190 | -7.73888 | 3510 ft | 176 kts | 279° |
| 2026-04-29 15:10 | 36.98405 | -7.75375 | 3278 ft | 171 kts | 279° |
| 2026-04-29 15:10 | 36.98613 | -7.76818 | 3054 ft | 167 kts | 279° |
| 2026-04-29 15:10 | 36.98816 | -7.78225 | 2832 ft | 161 kts | 278° |
| 2026-04-29 15:10 | 36.99011 | -7.79583 | 2623 ft | 157 kts | 279° |
| 2026-04-29 15:11 | 36.99202 | -7.80912 | 2415 ft | 154 kts | 278° |
| 2026-04-29 15:11 | 36.99389 | -7.82213 | 2220 ft | 148 kts | 278° |
| 2026-04-29 15:11 | 36.99568 | -7.83459 | 2010 ft | 141 kts | 277° |
| 2026-04-29 15:11 | 36.99737 | -7.84636 | 1836 ft | 133 kts | 277° |
| 2026-04-29 15:12 | 36.99898 | -7.85760 | 1657 ft | 130 kts | 277° |
| 2026-04-29 15:12 | 37.00003 | -7.86494 | 1538 ft | 129 kts | 277° |
| 2026-04-29 15:12 | 37.00214 | -7.87960 | 1303 ft | 127 kts | 276° |
| 2026-04-29 15:12 | 37.00361 | -7.89051 | 1112 ft | 127 kts | 276° |
| 2026-04-29 15:13 | 37.00518 | -7.90140 | 942 ft | 127 kts | 275° |
| 2026-04-29 15:13 | 37.00689 | -7.91214 | 785 ft | 125 kts | 274° |
| 2026-04-29 15:13 | 37.00830 | -7.92300 | 590 ft | 128 kts | 275° |
| 2026-04-29 15:13 | 37.00976 | -7.93394 | 433 ft | 127 kts | 277° |
| 2026-04-29 15:14 | 37.01141 | -7.94471 | 280 ft | 126 kts | 278° |
| 2026-04-29 15:14 | 37.01298 | -7.95552 | 111 ft | 126 kts | 276° |
| 2026-04-29 15:14 | 37.01442 | -7.96585 | 22 ft | 106 kts | 280° |
| 2026-04-29 15:14 | 37.01539 | -7.97269 | 20 ft | 58 kts | 280° |
| 2026-04-29 15:15 | 37.01594 | -7.97662 | 19 ft | 39 kts | 279° |
| 2026-04-29 15:15 | 37.01637 | -7.97848 | 22 ft | 12 kts | 319° |
| 2026-04-29 15:15 | 37.01705 | -7.97833 | 21 ft | 10 kts | 38° |
| 2026-04-29 15:15 | 37.01743 | -7.97767 | 20 ft | 9 kts | 64° |
| 2026-04-29 15:16 | 37.01763 | -7.97699 | 21 ft | 8 kts | 75° |
| 2026-04-29 15:16 | 37.01770 | -7.97618 | 20 ft | 10 kts | 90° |
| 2026-04-29 15:16 | 37.01762 | -7.97538 | 20 ft | 9 kts | 99° |
| 2026-04-29 15:16 | 37.01752 | -7.97462 | 20 ft | 10 kts | 100° |
| 2026-04-29 15:17 | 37.01738 | -7.97367 | 20 ft | 12 kts | 100° |
| 2026-04-29 15:17 | 37.01723 | -7.97260 | 20 ft | 13 kts | 100° |
| 2026-04-29 15:17 | 37.01706 | -7.97142 | 20 ft | 14 kts | 100° |
| 2026-04-29 15:17 | 37.01689 | -7.97025 | 21 ft | 14 kts | 99° |
| 2026-04-29 15:18 | 37.01695 | -7.96918 | 21 ft | 11 kts | 49° |
| 2026-04-29 15:18 | 37.01762 | -7.96896 | 20 ft | 10 kts | 10° |
| 2026-04-29 15:18 | 37.01822 | -7.96866 | 20 ft | 9 kts | 49° |
| 2026-04-29 15:18 | 37.01826 | -7.96802 | 20 ft | 6 kts | 65° |
| 2026-04-29 15:19 | 37.01861 | -7.96782 | 22 ft | 5 kts | 11° |
| 2026-04-29 15:19 | 37.01895 | -7.96775 | 20 ft | 3 kts | 9° |
| 2026-04-29 15:19 | 37.01907 | -7.96773 | 20 ft | 0 kts | 9° |